Time;durP1;ratioP1;P1;durP2;ratioP2;P2;SDS_P1;SDS_P2;PMS_P1;PMS_P2;Temp;Humidity;BMP_temperature;BMP_pressure;BME280_temperature;BME280_humidity;BME280_pressure;Samples;Min_cycle;Max_cycle;Signal;HPM_P1;HPM_P2
2022/02/28 00:01:11;;;;;;;13.93;6.85;;;;;;;-2.15;100.00;95814.94;4975208;28;20050;-65
2022/02/28 00:03:43;;;;;;;9.85;5.72;;;;;;;-2.22;100.00;95814.78;4991242;28;20053;-65
2022/02/28 00:06:13;;;;;;;11.98;6.18;;;;;;;-2.30;100.00;95814.78;4975028;28;20029;-65
2022/02/28 00:08:38;;;;;;;9.70;5.90;;;;;;;-2.35;100.00;95812.69;4976000;28;20433;-65
2022/02/28 00:11:06;;;;;;;11.80;5.60;;;;;;;-2.34;100.00;95810.88;4976028;28;20027;-65
2022/02/28 00:13:31;;;;;;;12.52;6.65;;;;;;;-2.30;100.00;95813.97;4976100;28;20437;-64
2022/02/28 00:15:57;;;;;;;9.85;6.05;;;;;;;-2.28;100.00;95819.88;4976045;28;20046;-66
2022/02/28 00:18:22;;;;;;;8.85;5.47;;;;;;;-2.29;100.00;95812.97;4990914;28;20022;-65
2022/02/28 00:20:48;;;;;;;10.30;5.90;;;;;;;-2.39;100.00;95813.16;4975346;28;20050;-65
2022/02/28 00:23:13;;;;;;;11.55;5.65;;;;;;;-2.49;100.00;95812.56;4970032;28;20027;-65
2022/02/28 00:25:43;;;;;;;10.80;6.18;;;;;;;-2.45;100.00;95812.03;4972303;28;20027;-66
2022/02/28 00:28:24;;;;;;;9.80;5.80;;;;;;;-2.45;100.00;95809.41;4975827;28;20062;-66
2022/02/28 00:30:58;;;;;;;10.05;5.72;;;;;;;-2.46;100.00;95806.97;4974546;28;20026;-66
2022/02/28 00:33:23;;;;;;;12.13;5.57;;;;;;;-2.53;100.00;95806.78;4975740;28;20030;-66
2022/02/28 00:35:49;;;;;;;12.30;6.43;;;;;;;-2.49;100.00;95804.69;4990645;28;20444;-66
2022/02/28 00:38:14;;;;;;;11.23;5.97;;;;;;;-2.51;100.00;95810.06;4975586;28;20098;-67
2022/02/28 00:40:39;;;;;;;9.45;5.50;;;;;;;-2.57;100.00;95800.25;4974429;28;20027;-67
2022/02/28 00:43:08;;;;;;;10.95;5.60;;;;;;;-2.66;100.00;95796.81;4975631;28;20030;-67
2022/02/28 00:45:33;;;;;;;14.60;6.30;;;;;;;-2.66;100.00;95793.38;4974311;28;20038;-67
2022/02/28 00:47:59;;;;;;;9.98;5.55;;;;;;;-2.62;100.00;95807.78;4990170;28;20593;-67
2022/02/28 00:50:24;;;;;;;12.40;6.28;;;;;;;-2.69;100.00;95796.34;4974127;28;20656;-66
2022/02/28 00:52:50;;;;;;;12.52;6.68;;;;;;;-2.75;100.00;95802.22;4975270;28;20363;-67
2022/02/28 00:55:17;;;;;;;11.55;6.15;;;;;;;-2.80;100.00;95800.13;4975443;28;20517;-67
2022/02/28 00:57:43;;;;;;;11.38;6.15;;;;;;;-2.80;100.00;95800.13;4974017;28;20405;-67
2022/02/28 01:00:14;;;;;;;11.32;6.03;;;;;;;-2.77;100.00;95798.97;4975278;28;20022;-67
2022/02/28 01:02:44;;;;;;;13.00;6.35;;;;;;;-2.76;100.00;95792.72;4975127;28;20026;-67
2022/02/28 01:05:09;;;;;;;10.63;5.93;;;;;;;-2.74;100.00;95796.00;4973811;28;20034;-67
2022/02/28 01:07:45;;;;;;;13.13;6.40;;;;;;;-2.74;100.00;95793.38;4975066;28;20027;-67
2022/02/28 01:10:16;;;;;;;10.02;5.97;;;;;;;-2.74;100.00;95783.72;4975044;28;20035;-67
2022/02/28 01:12:42;;;;;;;9.18;5.85;;;;;;;-2.74;100.00;95785.50;4989944;28;20022;-66
2022/02/28 01:15:10;;;;;;;11.80;5.55;;;;;;;-2.75;100.00;95787.31;4974731;28;20042;-66
2022/02/28 01:17:42;;;;;;;10.93;6.00;;;;;;;-2.78;100.00;95786.84;4989794;28;20150;-66
2022/02/28 01:20:10;;;;;;;11.03;6.07;;;;;;;-2.81;100.00;95779.31;4973897;28;20080;-67
2022/02/28 01:22:43;;;;;;;11.15;6.15;;;;;;;-2.71;100.00;95791.25;4974557;28;20273;-67
2022/02/28 01:25:10;;;;;;;10.02;5.80;;;;;;;-2.69;100.00;95791.91;4965142;28;20379;-66
2022/02/28 01:27:36;;;;;;;11.75;6.55;;;;;;;-2.73;100.00;95789.78;4971561;28;20138;-66
2022/02/28 01:30:06;;;;;;;11.15;6.13;;;;;;;-2.80;100.00;95796.69;4974707;28;20202;-66
2022/02/28 01:32:32;;;;;;;12.02;6.03;;;;;;;-2.96;100.00;95797.47;4973700;28;20494;-66
2022/02/28 01:35:04;;;;;;;12.15;5.72;;;;;;;-3.09;100.00;95803.22;4973712;28;20066;-66
2022/02/28 01:37:35;;;;;;;11.82;6.43;;;;;;;-3.18;100.00;95803.38;4989355;28;20058;-64
2022/02/28 01:40:01;;;;;;;11.95;6.00;;;;;;;-3.30;100.00;95805.47;4974568;28;20125;-66
2022/02/28 01:42:26;;;;;;;11.65;5.88;;;;;;;-3.42;100.00;95797.13;4974358;28;20022;-65
2022/02/28 01:45:01;;;;;;;10.40;6.05;;;;;;;-3.48;100.00;95802.97;4974430;28;20437;-65
2022/02/28 01:47:26;;;;;;;13.23;6.07;;;;;;;-3.60;100.00;95812.13;4974293;28;20580;-65
2022/02/28 01:49:52;;;;;;;9.35;5.82;;;;;;;-3.72;100.00;95808.97;4973083;28;20031;-63
2022/02/28 01:52:17;;;;;;;10.38;5.80;;;;;;;-3.85;100.00;95809.44;4974263;28;20081;-65
2022/02/28 01:54:45;;;;;;;10.63;6.57;;;;;;;-3.96;100.00;95811.50;4974099;28;20027;-65
2022/02/28 01:57:22;;;;;;;9.63;5.68;;;;;;;-4.03;100.00;95811.31;4989163;28;20030;-64
2022/02/28 01:59:49;;;;;;;10.77;5.60;;;;;;;-4.11;100.00;95827.81;4974140;28;20430;-65
2022/02/28 02:02:14;;;;;;;13.88;6.05;;;;;;;-4.15;100.00;95829.09;4974083;28;20022;-65
2022/02/28 02:04:43;;;;;;;12.23;6.10;;;;;;;-4.14;100.00;95822.06;4956791;28;20367;-64
2022/02/28 02:07:10;;;;;;;10.82;5.88;;;;;;;-4.20;100.00;95828.75;4988819;28;20490;-63
2022/02/28 02:09:36;;;;;;;10.50;5.85;;;;;;;-4.28;100.00;95828.69;4973840;28;20053;-65
2022/02/28 02:12:04;;;;;;;16.27;6.05;;;;;;;-4.37;100.00;95835.66;4973877;28;20042;-64
2022/02/28 02:14:32;;;;;;;10.57;6.07;;;;;;;-4.48;100.00;95835.91;4974235;28;20382;-64
2022/02/28 02:17:03;;;;;;;11.52;6.18;;;;;;;-4.59;100.00;95833.56;4973924;28;20034;-64
2022/02/28 02:19:35;;;;;;;13.43;5.97;;;;;;;-4.65;100.00;95851.66;4972586;28;20030;-63
2022/02/28 02:22:05;;;;;;;11.05;5.85;;;;;;;-4.72;100.00;95849.66;4973794;28;20405;-64
2022/02/28 02:24:31;;;;;;;12.77;5.78;;;;;;;-4.75;100.00;95855.19;4956544;28;20111;-62
2022/02/28 02:26:56;;;;;;;11.82;6.32;;;;;;;-4.65;100.00;95849.06;4964849;28;20113;-63
2022/02/28 02:29:22;;;;;;;13.27;6.80;;;;;;;-4.54;100.00;95854.03;4973724;28;20081;-63
2022/02/28 02:31:50;;;;;;;11.43;5.88;;;;;;;-4.43;100.00;95852.00;4973713;28;20031;-64
2022/02/28 02:34:15;;;;;;;11.07;5.78;;;;;;;-4.37;100.00;95853.97;4988510;28;20434;-62
2022/02/28 02:36:46;;;;;;;12.00;6.20;;;;;;;-4.29;100.00;95853.22;4973710;28;20114;-64
2022/02/28 02:39:12;;;;;;;11.40;6.03;;;;;;;-4.16;100.00;95853.59;4972856;28;20026;-64
2022/02/28 02:41:37;;;;;;;12.15;6.22;;;;;;;-4.14;100.00;95854.25;4973658;28;20113;-64
2022/02/28 02:44:06;;;;;;;12.60;6.50;;;;;;;-4.16;100.00;95861.44;4973387;28;20026;-64
2022/02/28 02:46:31;;;;;;;15.35;6.63;;;;;;;-4.22;100.00;95858.66;4973652;28;20026;-64
2022/02/28 02:48:56;;;;;;;11.60;6.32;;;;;;;-4.30;100.00;95862.03;4973023;28;20117;-64
2022/02/28 02:51:25;;;;;;;11.98;6.15;;;;;;;-4.40;100.00;95864.75;4973496;28;20082;-64
2022/02/28 02:53:53;;;;;;;11.50;6.40;;;;;;;-4.45;100.00;95866.16;4972269;28;20450;-64
2022/02/28 02:56:19;;;;;;;10.18;6.10;;;;;;;-4.47;100.00;95870.72;4973538;28;20066;-64
2022/02/28 02:58:44;;;;;;;12.63;6.20;;;;;;;-4.47;100.00;95868.94;4973519;28;20425;-64
2022/02/28 03:01:13;;;;;;;12.48;6.47;;;;;;;-4.38;100.00;95865.41;4973532;28;20041;-64
2022/02/28 03:03:41;;;;;;;14.50;6.53;;;;;;;-4.32;100.00;95873.63;4972210;28;20031;-64
2022/02/28 03:06:13;;;;;;;14.38;6.97;;;;;;;-4.33;100.00;95874.59;4973391;28;20069;-64
2022/02/28 03:08:38;;;;;;;12.63;7.35;;;;;;;-4.37;100.00;95877.50;4972721;28;20038;-63
2022/02/28 03:11:10;;;;;;;11.25;5.90;;;;;;;-4.39;100.00;95884.69;4972292;28;20023;-63
2022/02/28 03:13:35;;;;;;;13.05;6.40;;;;;;;-4.46;100.00;95883.66;4973418;28;20031;-63
2022/02/28 03:16:03;;;;;;;11.50;6.78;;;;;;;-4.51;100.00;95883.28;4971934;28;20498;-63
2022/02/28 03:18:28;;;;;;;13.88;6.03;;;;;;;-4.54;100.00;95886.22;4971976;28;20521;-63
2022/02/28 03:20:53;;;;;;;12.30;6.28;;;;;;;-4.41;100.00;95897.09;4973268;28;20031;-62
2022/02/28 03:23:22;;;;;;;13.50;6.28;;;;;;;-4.23;100.00;95888.41;4966783;28;20031;-63
2022/02/28 03:25:47;;;;;;;12.65;6.53;;;;;;;-4.18;100.00;95889.56;4955928;28;20055;-63
2022/02/28 03:28:20;;;;;;;11.85;6.22;;;;;;;-4.22;100.00;95882.19;4988161;28;20054;-63
2022/02/28 03:30:46;;;;;;;11.52;6.82;;;;;;;-4.31;100.00;95881.31;4973130;28;20038;-63
2022/02/28 03:33:11;;;;;;;13.05;6.30;;;;;;;-4.43;100.00;95893.81;4973095;28;20464;-63
2022/02/28 03:35:39;;;;;;;12.50;5.90;;;;;;;-4.53;100.00;95897.50;4973115;28;20033;-63
2022/02/28 03:38:15;;;;;;;11.02;6.00;;;;;;;-4.66;100.00;95897.91;4973077;28;20026;-62
2022/02/28 03:40:40;;;;;;;10.57;5.75;;;;;;;-4.73;100.00;95902.91;4973146;28;20026;-62
2022/02/28 03:43:06;;;;;;;9.95;6.05;;;;;;;-4.78;100.00;95902.50;4971776;28;20486;-62
2022/02/28 03:45:34;;;;;;;16.27;6.72;;;;;;;-4.84;100.00;95910.16;4972966;28;20034;-62
2022/02/28 03:48:00;;;;;;;11.27;5.82;;;;;;;-4.92;100.00;95907.44;4971465;28;20542;-62
2022/02/28 03:50:28;;;;;;;13.15;6.28;;;;;;;-5.01;100.00;95911.78;4973044;28;20033;-62
2022/02/28 03:52:56;;;;;;;11.68;6.07;;;;;;;-5.12;100.00;95907.59;4973023;28;20046;-62
2022/02/28 03:55:22;;;;;;;10.63;5.72;;;;;;;-5.27;100.00;95907.28;4974279;28;20393;-62
2022/02/28 03:57:51;;;;;;;16.13;6.97;;;;;;;-5.35;100.00;95912.41;4991535;28;20026;-62
2022/02/28 04:00:16;;;;;;;13.45;5.45;;;;;;;-5.42;100.00;95911.38;4976302;28;20195;-62
2022/02/28 04:02:51;;;;;;;13.18;6.53;;;;;;;-5.43;100.00;95921.94;4976337;28;20490;-63
2022/02/28 04:05:19;;;;;;;13.10;6.65;;;;;;;-5.37;100.00;95919.56;4976277;28;20102;-63
2022/02/28 04:07:51;;;;;;;11.70;6.55;;;;;;;-5.35;100.00;95929.88;4974937;28;20101;-63
2022/02/28 04:10:16;;;;;;;11.55;6.38;;;;;;;-5.37;100.00;95929.19;4976179;28;20508;-63
2022/02/28 04:12:44;;;;;;;13.18;7.00;;;;;;;-5.43;100.00;95927.97;4975914;28;20031;-63
2022/02/28 04:15:28;;;;;;;12.25;6.38;;;;;;;-5.50;100.00;95936.56;4974938;28;20027;-62
2022/02/28 04:17:56;;;;;;;12.63;6.13;;;;;;;-5.54;100.00;95943.81;4975870;28;20022;-63
2022/02/28 04:20:22;;;;;;;12.10;6.72;;;;;;;-5.54;100.00;95949.03;4976040;28;20393;-62
2022/02/28 04:22:47;;;;;;;13.15;6.90;;;;;;;-5.61;100.00;95946.22;4972286;28;20121;-63
2022/02/28 04:25:15;;;;;;;13.18;6.88;;;;;;;-5.70;100.00;95944.47;4956673;28;20478;-63
2022/02/28 04:27:41;;;;;;;14.65;6.70;;;;;;;-5.76;100.00;95947.63;4973622;28;20035;-63
2022/02/28 04:30:10;;;;;;;10.85;6.47;;;;;;;-5.83;100.00;95954.41;4975887;28;20030;-63
2022/02/28 04:32:35;;;;;;;14.43;6.75;;;;;;;-5.88;100.00;95957.41;4975666;28;20089;-64
2022/02/28 04:35:00;;;;;;;12.13;6.45;;;;;;;-5.92;100.00;95950.06;4975675;28;20371;-62
2022/02/28 04:37:26;;;;;;;12.35;6.90;;;;;;;-5.97;100.00;95965.31;4975837;28;20502;-63
2022/02/28 04:39:58;;;;;;;14.07;7.43;;;;;;;-6.02;100.00;95976.19;4974412;28;20057;-64
2022/02/28 04:42:24;;;;;;;14.15;7.68;;;;;;;-6.08;100.00;95979.34;4974493;28;20174;-64
2022/02/28 04:44:58;;;;;;;17.45;7.40;;;;;;;-6.11;100.00;95974.41;4975563;28;20114;-64
2022/02/28 04:47:23;;;;;;;14.30;7.13;;;;;;;-6.18;100.00;95987.19;4974012;28;20047;-64
2022/02/28 04:49:49;;;;;;;12.73;6.65;;;;;;;-6.20;100.00;95978.66;4989283;23;20051;-59
2022/02/28 04:52:22;;;;;;;13.32;6.68;;;;;;;-6.19;100.00;95982.94;4961380;28;20032;-59
2022/02/28 04:54:47;;;;;;;;;;;;;;;-6.13;100.00;95979.75;4963899;28;20051;-59
2022/02/28 04:57:12;;;;;;;14.15;6.65;;;;;;;-6.07;100.00;95977.56;4963904;28;19910;-60
2022/02/28 04:59:41;;;;;;;12.32;6.57;;;;;;;-6.08;100.00;95991.53;4961894;29;20033;-59
2022/02/28 05:02:12;;;;;;;11.65;6.75;;;;;;;-6.09;100.00;95984.69;4963495;28;20031;-58
2022/02/28 05:04:43;;;;;;;14.45;6.85;;;;;;;-6.04;100.00;95992.94;4963034;28;20832;-60
2022/02/28 05:07:08;;;;;;;11.52;6.68;;;;;;;-6.04;100.00;95990.31;4962181;28;20035;-58
2022/02/28 05:09:34;;;;;;;13.98;7.55;;;;;;;-6.03;100.00;95994.56;4962709;28;20455;-59
2022/02/28 05:12:05;;;;;;;15.07;7.20;;;;;;;-5.94;100.00;95998.94;4961470;28;20091;-59
2022/02/28 05:14:30;;;;;;;14.38;6.90;;;;;;;-5.82;100.00;96007.41;4959749;28;20474;-59
2022/02/28 05:16:56;;;;;;;12.38;7.43;;;;;;;-5.74;100.00;96005.75;4975715;28;20113;-59
2022/02/28 05:19:21;;;;;;;11.48;6.68;;;;;;;-5.73;100.00;96017.00;4959842;28;20023;-60
2022/02/28 05:21:46;;;;;;;15.45;7.75;;;;;;;-5.77;100.00;96010.41;4958925;28;20024;-59
2022/02/28 05:24:11;;;;;;;13.60;6.93;;;;;;;-5.78;100.00;96011.38;4971507;28;20029;-59
2022/02/28 05:26:37;;;;;;;12.65;7.00;;;;;;;-5.77;100.00;96013.00;4992281;28;20061;-59
2022/02/28 05:29:02;;;;;;;14.63;6.78;;;;;;;-5.78;100.00;96009.56;4977375;28;20034;-59
2022/02/28 05:31:31;;;;;;;11.30;6.72;;;;;;;-5.84;100.00;96018.81;4991610;28;20062;-58
2022/02/28 05:33:56;;;;;;;12.23;6.68;;;;;;;-5.88;100.00;96025.25;4976946;28;20030;-58
2022/02/28 05:36:21;;;;;;;14.65;6.53;;;;;;;-5.89;100.00;96033.22;4977363;28;20030;-60
2022/02/28 05:38:53;;;;;;;14.15;6.93;;;;;;;-5.94;100.00;96032.88;4977240;28;20058;-56
2022/02/28 05:41:18;;;;;;;13.60;6.80;;;;;;;-5.98;100.00;96044.53;4977370;28;20050;-57
2022/02/28 05:43:44;;;;;;;12.73;6.53;;;;;;;-6.02;100.00;96043.16;4992118;28;20177;-60
2022/02/28 05:46:11;;;;;;;12.27;6.30;;;;;;;-5.98;100.00;96039.31;4977325;28;20023;-59
2022/02/28 05:48:38;;;;;;;12.80;7.15;;;;;;;-5.97;100.00;96040.94;4976661;28;20177;-59
2022/02/28 05:51:04;;;;;;;13.35;6.57;;;;;;;-6.00;100.00;96036.00;4976875;28;20127;-60
2022/02/28 05:53:29;;;;;;;11.93;6.53;;;;;;;-6.00;100.00;96049.88;4976953;28;20042;-57
2022/02/28 05:55:58;;;;;;;13.55;6.78;;;;;;;-5.98;100.00;96052.34;4991953;28;20122;-59
2022/02/28 05:58:23;;;;;;;12.63;6.93;;;;;;;-6.04;100.00;96058.97;4975145;28;20019;-59
2022/02/28 06:00:51;;;;;;;11.38;6.85;;;;;;;-6.07;100.00;96061.84;4991234;28;20093;-57
2022/02/28 06:03:16;;;;;;;12.32;6.35;;;;;;;-6.16;100.00;96057.47;4976289;28;20027;-59
2022/02/28 06:05:48;;;;;;;15.35;6.95;;;;;;;-6.22;100.00;96064.03;4976082;28;20385;-60
2022/02/28 06:08:19;;;;;;;15.02;6.65;;;;;;;-6.26;100.00;96059.25;4975663;28;20022;-59
2022/02/28 06:10:45;;;;;;;13.50;6.80;;;;;;;-6.29;100.00;96068.16;4975704;28;20038;-59
2022/02/28 06:13:13;;;;;;;12.18;6.53;;;;;;;-6.23;100.00;96067.59;4975326;28;20035;-58
2022/02/28 06:15:41;;;;;;;14.77;7.15;;;;;;;-6.19;100.00;96069.00;4973856;28;20034;-59
2022/02/28 06:18:09;;;;;;;12.93;7.03;;;;;;;-6.08;100.00;96080.22;4973431;28;20022;-58
2022/02/28 06:20:36;;;;;;;14.95;7.07;;;;;;;-5.97;100.00;96085.28;4974266;28;20038;-58
2022/02/28 06:23:05;;;;;;;16.27;7.18;;;;;;;-5.94;100.00;96088.47;4975498;28;20363;-59
2022/02/28 06:25:31;;;;;;;14.35;6.93;;;;;;;-5.94;100.00;96088.47;4989681;28;20023;-60
2022/02/28 06:27:59;;;;;;;13.52;7.07;;;;;;;-5.90;100.00;96100.22;4974298;28;20516;-60
2022/02/28 06:30:24;;;;;;;11.82;7.35;;;;;;;-5.88;100.00;96095.69;4971023;28;20030;-60
2022/02/28 06:32:50;;;;;;;13.88;7.25;;;;;;;-5.85;100.00;96100.66;4927537;28;20084;-59
2022/02/28 06:35:18;;;;;;;16.52;7.53;;;;;;;-5.80;100.00;96104.63;4988243;28;20023;-59
2022/02/28 06:37:44;;;;;;;16.15;7.95;;;;;;;-5.80;100.00;96097.59;4970798;28;20054;-55
2022/02/28 06:40:10;;;;;;;12.82;6.70;;;;;;;-5.78;100.00;96111.34;4970219;28;20026;-59
2022/02/28 06:42:35;;;;;;;14.25;7.15;;;;;;;-5.75;100.00;96111.06;4969174;28;20027;-58
2022/02/28 06:45:01;;;;;;;12.50;6.65;;;;;;;-5.71;100.00;96117.66;4972079;28;20027;-56
2022/02/28 06:47:27;;;;;;;13.07;6.90;;;;;;;-5.66;100.00;96127.66;4965570;28;20058;-59
2022/02/28 06:49:52;;;;;;;16.10;6.88;;;;;;;-5.65;100.00;96126.69;4971781;28;20046;-59
2022/02/28 06:52:25;;;;;;;15.50;6.95;;;;;;;-5.58;100.00;96133.84;4956135;28;20483;-60
2022/02/28 06:54:53;;;;;;;15.88;8.38;;;;;;;-5.47;100.00;96127.63;4969423;28;20058;-60
2022/02/28 06:57:19;;;;;;;13.18;7.88;;;;;;;-5.31;100.00;96129.69;4974383;28;20026;-60
2022/02/28 06:59:44;;;;;;;17.27;8.55;;;;;;;-5.12;100.00;96131.38;4977624;28;20118;-60
2022/02/28 07:02:12;;;;;;;15.77;8.70;;;;;;;-4.98;100.00;96138.78;4958037;28;20031;-60
2022/02/28 07:04:40;;;;;;;17.08;9.30;;;;;;;-4.85;100.00;96141.06;4982368;28;20022;-60
2022/02/28 07:07:08;;;;;;;18.38;9.85;;;;;;;-4.75;100.00;96140.06;4978576;28;20272;-60
2022/02/28 07:09:33;;;;;;;19.77;9.02;;;;;;;-4.67;100.00;96142.78;4970837;28;20039;-55
2022/02/28 07:11:59;;;;;;;17.77;9.10;;;;;;;-4.61;100.00;96151.00;4960082;28;20085;-60
2022/02/28 07:14:25;;;;;;;17.05;9.38;;;;;;;-4.57;100.00;96153.16;4959649;28;20034;-58
2022/02/28 07:16:51;;;;;;;18.05;9.70;;;;;;;-4.55;100.00;96153.06;4962409;28;20483;-60
2022/02/28 07:19:16;;;;;;;16.48;8.98;;;;;;;-4.40;100.00;96156.81;4969662;28;20034;-59
2022/02/28 07:21:42;;;;;;;14.45;8.13;;;;;;;-4.21;100.00;96159.31;4993582;28;20011;-58
2022/02/28 07:24:07;;;;;;;15.27;8.60;;;;;;;-4.09;100.00;96154.69;4978320;28;20014;-59
2022/02/28 07:26:34;;;;;;;14.60;8.38;;;;;;;-4.01;100.00;96156.59;4971494;28;20093;-60
2022/02/28 07:28:59;;;;;;;17.58;8.35;;;;;;;-3.93;100.00;96161.88;4983777;28;20023;-58
2022/02/28 07:31:25;;;;;;;15.35;7.93;;;;;;;-3.86;100.00;96163.75;4948112;28;20437;-60
2022/02/28 07:33:53;;;;;;;15.63;9.02;;;;;;;-3.76;100.00;96168.91;4985051;28;20034;-60
2022/02/28 07:36:19;;;;;;;16.30;8.13;;;;;;;-3.68;100.00;96166.38;4983184;28;20027;-61
2022/02/28 07:38:44;;;;;;;16.35;8.88;;;;;;;-3.51;100.00;96167.31;4976238;28;20034;-60
2022/02/28 07:41:10;;;;;;;17.20;9.38;;;;;;;-3.26;100.00;96169.19;4977013;28;20093;-61
2022/02/28 07:43:38;;;;;;;18.92;8.63;;;;;;;-2.96;100.00;96167.06;4976175;28;20082;-61
2022/02/28 07:46:04;;;;;;;18.70;9.25;;;;;;;-2.65;100.00;96159.53;4978712;28;20030;-61
2022/02/28 07:48:38;;;;;;;15.48;9.00;;;;;;;-2.27;100.00;96158.22;4964758;28;20109;-61
2022/02/28 07:51:04;;;;;;;19.05;8.73;;;;;;;-1.96;100.00;96155.81;4959482;28;20027;-61
2022/02/28 07:53:30;;;;;;;16.15;8.50;;;;;;;-1.64;100.00;96151.59;4971997;28;20042;-62
2022/02/28 07:55:58;;;;;;;16.63;8.90;;;;;;;-1.29;100.00;96142.59;4957194;28;20023;-61
2022/02/28 07:58:23;;;;;;;19.73;8.20;;;;;;;-0.98;100.00;96137.44;4957173;28;20031;-62
2022/02/28 08:00:49;;;;;;;13.50;7.97;;;;;;;-0.61;100.00;96132.44;4929785;28;20058;-61
2022/02/28 08:03:17;;;;;;;18.23;8.35;;;;;;;-0.28;100.00;96128.84;4991253;28;20381;-63
2022/02/28 08:05:48;;;;;;;14.55;8.15;;;;;;;0.07;100.00;96119.59;4967491;28;20063;-63
2022/02/28 08:08:14;;;;;;;14.95;8.30;;;;;;;0.24;100.00;96115.88;4991023;28;20537;-63
2022/02/28 08:10:45;;;;;;;13.98;7.57;;;;;;;0.36;100.00;96106.56;4976544;28;20117;-63
2022/02/28 08:13:11;;;;;;;13.07;7.57;;;;;;;0.52;100.00;96092.41;4976004;28;20027;-64
2022/02/28 08:15:40;;;;;;;12.73;7.43;;;;;;;0.72;100.00;96079.56;4976063;28;20027;-64
2022/02/28 08:18:07;;;;;;;11.88;7.57;;;;;;;0.80;100.00;96067.13;4976059;28;20031;-65
2022/02/28 08:20:33;;;;;;;12.38;7.40;;;;;;;1.07;100.00;96049.84;4976320;28;20038;-64
2022/02/28 08:23:00;;;;;;;13.77;7.82;;;;;;;1.35;100.00;96033.38;4958519;28;20094;-65
2022/02/28 08:25:34;;;;;;;11.13;6.68;;;;;;;1.68;100.00;96018.75;4976509;28;20057;-64
2022/02/28 08:28:00;;;;;;;13.45;7.43;;;;;;;1.98;100.00;96005.44;4992226;28;20039;-65
2022/02/28 08:30:25;;;;;;;13.68;7.15;;;;;;;2.26;100.00;95981.69;4977916;28;20493;-64
2022/02/28 08:32:53;;;;;;;12.35;7.13;;;;;;;2.59;100.00;95961.59;4977399;28;20034;-64
2022/02/28 08:35:31;;;;;;;11.55;6.70;;;;;;;2.86;100.00;95940.59;4977011;28;20559;-64
2022/02/28 08:37:59;;;;;;;11.98;7.05;;;;;;;2.90;100.00;95924.13;4975924;28;20069;-65
2022/02/28 08:40:25;;;;;;;13.63;7.25;;;;;;;3.01;100.00;95906.06;4975303;28;20053;-64
2022/02/28 08:42:54;;;;;;;12.25;6.85;;;;;;;3.18;100.00;95899.41;4990624;28;20058;-64
2022/02/28 08:45:19;;;;;;;11.18;6.03;;;;;;;3.51;100.00;95888.09;4974615;28;20038;-64
2022/02/28 08:47:44;;;;;;;12.02;6.50;;;;;;;3.72;100.00;95885.28;4975830;28;20023;-64
2022/02/28 08:50:11;;;;;;;10.90;6.80;;;;;;;4.02;100.00;95896.31;4975809;28;20043;-65
2022/02/28 08:52:37;;;;;;;11.43;6.57;;;;;;;4.27;100.00;95917.72;4977347;28;20389;-65
2022/02/28 08:55:04;;;;;;;10.30;5.82;;;;;;;4.49;100.00;95944.81;4992055;28;20026;-65
2022/02/28 08:57:29;;;;;;;10.45;6.68;;;;;;;4.56;100.00;95988.09;4976409;28;20023;-65
2022/02/28 08:59:55;;;;;;;10.25;6.07;;;;;;;4.61;100.00;96047.47;4976245;28;20041;-64
2022/02/28 09:02:23;;;;;;;9.75;5.38;;;;;;;4.68;100.00;96110.38;4976156;28;20022;-65
2022/02/28 09:04:51;;;;;;;9.00;5.78;;;;;;;4.79;100.00;96163.66;4974880;28;20022;-65
2022/02/28 09:07:20;;;;;;;11.13;6.25;;;;;;;4.80;100.00;96215.72;4974896;28;20378;-64
2022/02/28 09:09:52;;;;;;;8.63;5.60;;;;;;;4.97;100.00;96257.81;4975749;28;20061;-64
2022/02/28 09:12:17;;;;;;;12.27;6.13;;;;;;;4.98;100.00;96286.81;4975162;28;20034;-64
2022/02/28 09:14:43;;;;;;;11.13;6.35;;;;;;;5.00;100.00;96311.34;4975258;28;20270;-65
2022/02/28 09:17:08;;;;;;;10.70;5.63;;;;;;;5.17;100.00;96330.38;4973840;28;20031;-65
2022/02/28 09:19:33;;;;;;;8.00;5.65;;;;;;;5.33;100.00;96358.44;4974941;28;20493;-65
2022/02/28 09:21:59;;;;;;;9.88;5.90;;;;;;;5.49;100.00;96374.81;4974982;28;20031;-65
2022/02/28 09:24:34;;;;;;;7.82;6.00;;;;;;;5.69;100.00;96404.09;4975063;28;20030;-65
2022/02/28 09:27:07;;;;;;;12.18;6.15;;;;;;;5.72;100.00;96419.63;4974904;28;20386;-65
2022/02/28 09:29:35;;;;;;;7.28;5.15;;;;;;;5.67;100.00;96446.00;4974681;28;20033;-65
2022/02/28 09:32:01;;;;;;;9.10;5.03;;;;;;;5.83;100.00;96458.91;4974729;28;20034;-65
2022/02/28 09:34:29;;;;;;;7.85;5.75;;;;;;;6.06;100.00;96481.69;4973450;28;20034;-65
2022/02/28 09:36:54;;;;;;;9.43;5.15;;;;;;;6.25;100.00;96496.06;4974695;28;20026;-64
2022/02/28 09:39:20;;;;;;;6.50;4.90;;;;;;;6.41;100.00;96516.97;4974330;28;20118;-64
2022/02/28 09:41:46;;;;;;;9.23;4.80;;;;;;;6.51;100.00;96538.69;4974424;28;20030;-65
2022/02/28 09:44:16;;;;;;;7.65;5.00;;;;;;;6.61;100.00;96555.03;4974806;28;20054;-65
2022/02/28 09:46:45;;;;;;;8.55;5.25;;;;;;;6.75;100.00;96565.72;4974530;28;20085;-65
2022/02/28 09:49:11;;;;;;;6.00;4.68;;;;;;;6.89;100.00;96578.84;4989200;28;20057;-65
2022/02/28 09:51:38;;;;;;;7.25;4.47;;;;;;;7.10;100.00;96587.66;4974551;28;20026;-64
2022/02/28 09:54:03;;;;;;;9.38;5.55;;;;;;;7.20;100.00;96606.69;4973573;28;20031;-65
2022/02/28 09:56:29;;;;;;;7.90;4.45;;;;;;;7.19;99.70;96626.38;4989202;28;20363;-64
2022/02/28 09:58:54;;;;;;;7.55;5.00;;;;;;;7.17;98.71;96637.25;4974249;28;20437;-65
2022/02/28 10:01:20;;;;;;;8.05;4.43;;;;;;;7.12;97.27;96652.19;4974166;28;20070;-64
2022/02/28 10:03:46;;;;;;;7.25;5.15;;;;;;;7.08;96.66;96656.31;4974062;28;20431;-65
2022/02/28 10:06:11;;;;;;;7.28;4.35;;;;;;;6.83;98.01;96654.22;4974209;28;20035;-65
2022/02/28 10:08:40;;;;;;;8.27;5.07;;;;;;;6.76;99.80;96650.72;4972761;28;20501;-65
2022/02/28 10:11:30;;;;;;;10.02;5.28;;;;;;;6.61;100.00;96661.53;4973993;28;20035;-65
2022/02/28 10:13:58;;;;;;;8.60;4.88;;;;;;;6.74;100.00;96665.28;4974095;28;20030;-65
2022/02/28 10:16:50;;;;;;;10.77;5.47;;;;;;;6.88;100.00;96659.75;4974045;28;20026;-65
2022/02/28 10:19:24;;;;;;;9.68;5.65;;;;;;;7.18;100.00;96662.88;4974284;28;20408;-63
2022/02/28 10:22:01;;;;;;;10.40;6.78;;;;;;;7.50;100.00;96655.06;4988983;28;20030;-64
2022/02/28 10:24:38;;;;;;;9.45;6.43;;;;;;;7.83;100.00;96663.00;4972827;28;20133;-64
2022/02/28 10:27:08;;;;;;;11.20;6.60;;;;;;;7.98;100.00;96666.25;4974447;28;20520;-64
2022/02/28 10:29:44;;;;;;;9.45;6.50;;;;;;;7.99;98.20;96675.88;4988755;28;20070;-64
2022/02/28 10:32:12;;;;;;;10.18;6.60;;;;;;;8.21;99.06;96675.63;4973990;28;20065;-64
2022/02/28 10:37:25;;;;;;;8.85;6.05;;;;;;;7.73;98.72;96671.44;4974076;28;20057;-64
2022/02/28 10:39:59;;;;;;;9.57;6.47;;;;;;;8.03;97.65;96673.59;4968118;28;20035;-65
2022/02/28 10:42:25;;;;;;;12.85;6.50;;;;;;;7.95;98.21;96671.19;4972640;28;20023;-65
2022/02/28 10:45:28;;;;;;;8.25;5.97;;;;;;;8.24;100.00;96657.31;4973773;28;20026;-65
2022/02/28 10:47:54;;;;;;;8.48;5.95;;;;;;;8.61;97.37;96663.78;4946231;28;20049;-65
2022/02/28 10:50:38;;;;;;;9.68;5.82;;;;;;;8.90;95.59;96666.88;4982790;23;20058;-67
2022/02/28 10:53:14;;;;;;;7.80;5.55;;;;;;;9.14;91.61;96667.97;4972342;28;20053;-67
2022/02/28 10:55:50;;;;;;;9.45;5.32;;;;;;;9.13;87.59;96675.19;4972655;28;20023;-67
2022/02/28 10:58:19;;;;;;;9.80;5.45;;;;;;;9.13;85.19;96685.88;4976371;28;20026;-67
2022/02/28 11:00:58;;;;;;;12.65;6.20;;;;;;;9.16;85.49;96696.13;4990044;28;20038;-67
2022/02/28 11:03:44;;;;;;;6.82;5.15;;;;;;;9.15;83.15;96704.34;4989858;28;20030;-67
2022/02/28 11:06:10;;;;;;;7.57;5.82;;;;;;;9.21;85.02;96692.78;4994594;28;20061;-67
2022/02/28 11:08:43;;;;;;;9.80;6.10;;;;;;;9.26;85.86;96688.44;4996169;28;20471;-67
2022/02/28 11:11:17;;;;;;;11.90;5.63;;;;;;;9.22;86.34;96689.06;4993037;28;20424;-67
2022/02/28 11:13:44;;;;;;;8.18;5.93;;;;;;;9.41;84.83;96688.09;4994554;28;20027;-67
2022/02/28 11:16:19;;;;;;;9.43;6.28;;;;;;;9.02;86.23;96683.06;4994884;28;20018;-67
2022/02/28 11:18:47;;;;;;;8.02;5.97;;;;;;;8.99;87.99;96678.94;4992882;28;20038;-67
2022/02/28 11:21:16;;;;;;;9.82;6.32;;;;;;;9.05;88.06;96679.97;4994357;28;20022;-67
2022/02/28 11:23:48;;;;;;;9.13;5.80;;;;;;;8.63;87.39;96677.72;4989894;28;20058;-67
2022/02/28 11:26:19;;;;;;;10.77;5.53;;;;;;;8.38;87.66;96674.97;4987965;28;20050;-67
2022/02/28 11:28:45;;;;;;;10.52;6.30;;;;;;;8.43;88.79;96674.31;4992384;28;20034;-67